createdAt,value
2018-07-21T00:01:27.449Z,5.93
2018-07-21T00:03:56.386Z,6.30
2018-07-21T00:06:25.297Z,5.90
2018-07-21T00:08:54.258Z,6.03
2018-07-21T00:11:23.202Z,5.78
2018-07-21T00:13:52.094Z,7.13
2018-07-21T00:16:21.030Z,7.42
2018-07-21T00:18:49.965Z,7.05
2018-07-21T00:21:18.848Z,6.37
2018-07-21T00:23:47.753Z,6.62
2018-07-21T00:26:16.642Z,6.47
2018-07-21T00:28:45.534Z,6.37
2018-07-21T00:31:14.402Z,6.87
2018-07-21T00:33:43.318Z,5.80
2018-07-21T00:36:12.294Z,6.40
2018-07-21T00:38:41.291Z,5.97
2018-07-21T00:41:10.166Z,6.13
2018-07-21T00:43:39.089Z,5.53
2018-07-21T00:46:08.090Z,5.50
2018-07-21T00:48:37.041Z,5.62
2018-07-21T00:51:05.953Z,6.17
2018-07-21T00:53:34.849Z,5.83
2018-07-21T00:56:03.866Z,5.55
2018-07-21T00:58:32.843Z,6.05
2018-07-21T01:01:01.991Z,5.45
2018-07-21T01:03:30.906Z,5.28
2018-07-21T01:05:59.831Z,5.00
2018-07-21T01:08:28.785Z,6.05
2018-07-21T01:10:57.710Z,4.90
2018-07-21T01:13:26.693Z,5.58
2018-07-21T01:15:55.661Z,5.58
2018-07-21T01:18:24.578Z,5.67
2018-07-21T01:20:53.605Z,5.67
2018-07-21T01:23:22.535Z,5.08
2018-07-21T01:25:51.507Z,6.00
2018-07-21T01:28:20.517Z,5.45
2018-07-21T01:30:49.414Z,5.67
2018-07-21T01:33:18.307Z,6.00
2018-07-21T01:35:47.527Z,5.90
2018-07-21T01:38:16.409Z,5.50
2018-07-21T01:40:45.314Z,5.87
2018-07-21T01:43:14.226Z,6.05
2018-07-21T01:45:43.283Z,5.50
2018-07-21T01:48:12.187Z,5.67
2018-07-21T01:50:41.105Z,5.85
2018-07-21T01:53:09.742Z,6.12
2018-07-21T01:55:38.598Z,5.85
2018-07-21T01:58:07.574Z,5.80
2018-07-21T02:00:36.571Z,6.45
2018-07-21T02:03:05.457Z,5.55
2018-07-21T02:05:34.394Z,6.00
2018-07-21T02:08:03.343Z,5.45
2018-07-21T02:10:32.225Z,5.55
2018-07-21T02:13:01.151Z,5.35
2018-07-21T02:15:30.231Z,5.20
2018-07-21T02:17:59.466Z,6.03
2018-07-21T02:20:28.523Z,5.80
2018-07-21T02:22:57.448Z,5.40
2018-07-21T02:25:26.383Z,6.37
2018-07-21T02:27:55.371Z,5.87
2018-07-21T02:30:24.390Z,5.17
2018-07-21T02:32:53.317Z,5.55
2018-07-21T02:35:21.939Z,5.40
2018-07-21T02:37:50.999Z,6.03
2018-07-21T02:40:19.911Z,5.90
2018-07-21T02:42:48.889Z,6.47
2018-07-21T02:45:17.822Z,6.20
2018-07-21T02:47:46.706Z,5.55
2018-07-21T02:50:15.610Z,5.17
2018-07-21T02:52:44.530Z,5.67
2018-07-21T02:55:13.437Z,5.00
2018-07-21T02:57:42.339Z,5.20
2018-07-21T03:00:11.298Z,4.62
2018-07-21T03:02:40.187Z,5.97
2018-07-21T03:05:09.110Z,5.17
2018-07-21T03:07:37.991Z,5.30
2018-07-21T03:10:07.010Z,5.45
2018-07-21T03:12:36.106Z,5.47
2018-07-21T03:15:05.299Z,4.95
2018-07-21T03:17:34.187Z,5.40
2018-07-21T03:20:03.891Z,5.50
2018-07-21T03:22:32.771Z,5.60
2018-07-21T03:25:01.748Z,5.20
2018-07-21T03:27:30.630Z,5.70
2018-07-21T03:29:59.535Z,5.87
2018-07-21T03:32:28.446Z,5.17
2018-07-21T03:34:57.045Z,5.83
2018-07-21T03:37:25.867Z,6.28
2018-07-21T03:39:54.758Z,5.50
2018-07-21T03:42:23.791Z,5.80
2018-07-21T03:44:52.744Z,6.22
2018-07-21T03:47:21.706Z,5.97
2018-07-21T03:49:50.601Z,5.80
2018-07-21T03:52:19.515Z,5.85
2018-07-21T03:54:48.398Z,5.95
2018-07-21T03:57:17.290Z,5.22
2018-07-21T03:59:46.178Z,6.42
2018-07-21T04:02:15.082Z,6.28
2018-07-21T04:04:44.054Z,6.10
2018-07-21T04:07:12.973Z,6.35
2018-07-21T04:09:41.862Z,6.20
2018-07-21T04:12:10.767Z,5.83
2018-07-21T04:14:39.720Z,5.97
2018-07-21T04:17:13.109Z,6.37
2018-07-21T04:19:41.694Z,6.62
2018-07-21T04:22:10.502Z,6.80
2018-07-21T04:24:39.410Z,6.70
2018-07-21T04:27:08.430Z,6.87
2018-07-21T04:29:37.350Z,7.45
2018-07-21T04:32:06.385Z,7.53
2018-07-21T04:34:35.271Z,6.83
2018-07-21T04:37:04.247Z,7.10
2018-07-21T04:39:33.147Z,7.33
2018-07-21T04:42:02.083Z,8.30
2018-07-21T04:44:31.134Z,7.70
2018-07-21T04:47:00.059Z,8.25
2018-07-21T04:49:30.840Z,8.03
2018-07-21T04:52:00.940Z,7.70
2018-07-21T04:54:30.371Z,7.58
2018-07-21T04:56:59.653Z,7.70
2018-07-21T04:59:28.630Z,7.92
2018-07-21T05:01:57.668Z,7.28
2018-07-21T05:04:26.329Z,8.18
2018-07-21T05:06:55.150Z,7.17
2018-07-21T05:09:24.093Z,7.70
2018-07-21T05:11:52.992Z,7.20
2018-07-21T05:14:21.945Z,6.83
2018-07-21T05:16:50.922Z,7.15
2018-07-21T05:19:19.814Z,6.92
2018-07-21T05:21:48.718Z,7.00
2018-07-21T05:24:17.638Z,6.83
2018-07-21T05:26:46.547Z,6.90
2018-07-21T05:29:15.510Z,6.75
2018-07-21T05:31:44.494Z,6.70
2018-07-21T05:34:13.405Z,5.80
2018-07-21T05:36:42.428Z,6.03
2018-07-21T05:39:11.725Z,6.15
2018-07-21T05:41:41.434Z,5.87
2018-07-21T05:44:10.555Z,6.47
2018-07-21T05:46:39.542Z,6.65
2018-07-21T05:49:08.790Z,5.62
2018-07-21T05:51:37.698Z,5.53
2018-07-21T05:54:06.437Z,5.42
2018-07-21T05:56:36.374Z,5.77
2018-07-21T05:59:05.405Z,6.05
2018-07-21T06:01:34.451Z,5.72
2018-07-21T06:04:03.448Z,5.97
2018-07-21T06:06:32.386Z,5.65
2018-07-21T06:09:01.267Z,5.33
2018-07-21T06:11:30.243Z,5.65
2018-07-21T06:13:59.275Z,5.42
2018-07-21T06:16:28.474Z,4.97
2018-07-21T06:18:57.508Z,5.33
2018-07-21T06:21:26.417Z,4.75
2018-07-21T06:23:55.459Z,5.00
2018-07-21T06:26:24.443Z,4.92
2018-07-21T06:28:53.354Z,4.90
2018-07-21T06:31:22.291Z,5.30
2018-07-21T06:33:51.186Z,5.15
2018-07-21T06:36:20.103Z,4.87
2018-07-21T06:38:48.997Z,4.45
2018-07-21T06:41:17.976Z,5.12
2018-07-21T06:43:47.008Z,5.40
2018-07-21T06:46:15.938Z,4.53
2018-07-21T06:48:44.859Z,5.30
2018-07-21T06:51:13.778Z,4.95
2018-07-21T06:53:42.913Z,5.75
2018-07-21T06:56:11.907Z,5.12
2018-07-21T06:58:40.794Z,5.50
2018-07-21T07:01:09.685Z,7.75
2018-07-21T07:03:38.819Z,6.78
2018-07-21T07:06:07.692Z,6.15
2018-07-21T07:08:36.744Z,6.45
2018-07-21T07:11:05.649Z,7.00
2018-07-21T07:13:34.535Z,7.40
2018-07-21T07:16:03.454Z,7.45
2018-07-21T07:18:32.386Z,7.90
2018-07-21T07:21:01.297Z,9.15
2018-07-21T07:23:30.238Z,8.63
2018-07-21T07:25:59.249Z,8.60
2018-07-21T07:28:28.242Z,7.35
2018-07-21T07:30:57.165Z,8.33
2018-07-21T07:33:26.188Z,7.53
2018-07-21T07:35:55.080Z,6.67
2018-07-21T07:38:24.026Z,8.30
2018-07-21T07:40:52.957Z,7.70
2018-07-21T07:43:21.882Z,8.53
2018-07-21T07:45:50.842Z,7.08
2018-07-21T07:48:19.783Z,7.47
2018-07-21T07:50:48.691Z,7.62
2018-07-21T07:53:17.667Z,8.90
2018-07-21T07:55:46.546Z,8.98
2018-07-21T07:58:15.540Z,8.85
2018-07-21T08:00:44.414Z,8.83
2018-07-21T08:03:13.314Z,10.05
2018-07-21T08:05:42.745Z,9.35
2018-07-21T08:08:12.619Z,9.63
2018-07-21T08:10:41.523Z,10.35
2018-07-21T08:13:10.462Z,10.58
2018-07-21T08:15:39.394Z,10.35
2018-07-21T08:18:08.352Z,9.60
2018-07-21T08:20:37.210Z,10.23
2018-07-21T08:23:06.164Z,10.03
2018-07-21T08:25:35.117Z,12.28
2018-07-21T08:28:04.063Z,10.10
2018-07-21T08:30:32.950Z,10.88
2018-07-21T08:33:01.857Z,11.38
2018-07-21T08:35:30.810Z,10.00
2018-07-21T08:37:59.728Z,10.90
2018-07-21T08:40:28.623Z,11.20
2018-07-21T08:42:57.590Z,11.12
2018-07-21T08:45:26.497Z,10.43
2018-07-21T08:47:55.451Z,10.23
2018-07-21T08:50:24.374Z,11.15
2018-07-21T08:52:53.329Z,10.98
2018-07-21T08:55:22.304Z,11.15
2018-07-21T08:57:51.419Z,10.78
2018-07-21T09:00:20.359Z,11.40
2018-07-21T09:02:49.377Z,10.50
2018-07-21T09:05:18.382Z,10.90
2018-07-21T09:07:48.266Z,11.08
2018-07-21T09:10:17.151Z,11.15
2018-07-21T09:12:46.079Z,11.53
2018-07-21T09:15:15.006Z,12.10
2018-07-21T09:17:44.077Z,11.78
2018-07-21T09:20:13.026Z,12.60
2018-07-21T09:22:41.926Z,11.78
2018-07-21T09:25:10.842Z,12.25
2018-07-21T09:27:39.755Z,12.53
2018-07-21T09:30:08.708Z,13.32
2018-07-21T09:32:37.618Z,14.05
2018-07-21T09:35:06.564Z,12.30
2018-07-21T09:37:35.461Z,12.00
2018-07-21T09:40:04.520Z,13.40
2018-07-21T09:42:33.474Z,13.35
2018-07-21T09:45:02.375Z,14.13
2018-07-21T09:47:31.290Z,12.37
2018-07-21T09:50:00.166Z,13.70
2018-07-21T09:52:29.112Z,13.30
2018-07-21T09:54:58.046Z,14.33
2018-07-21T09:57:26.990Z,14.38
2018-07-21T09:59:55.926Z,14.68
2018-07-21T10:02:24.850Z,14.38
2018-07-21T10:04:54.182Z,14.33
2018-07-21T10:07:23.267Z,14.70
2018-07-21T10:09:52.406Z,15.35
2018-07-21T10:12:21.317Z,13.62
2018-07-21T10:14:50.259Z,15.00
2018-07-21T10:17:19.176Z,15.38
2018-07-21T10:19:48.910Z,16.57
2018-07-21T10:22:17.827Z,15.20
2018-07-21T10:24:52.154Z,14.58
2018-07-21T10:27:21.149Z,13.85
2018-07-21T10:29:50.234Z,14.20
2018-07-21T10:32:20.254Z,15.43
2018-07-21T10:34:49.161Z,15.58
2018-07-21T10:37:18.037Z,14.40
2018-07-21T10:39:46.983Z,15.58
2018-07-21T10:42:15.883Z,12.58
2018-07-21T10:44:45.055Z,14.70
2018-07-21T10:47:16.380Z,15.75
2018-07-21T10:49:45.332Z,14.85
2018-07-21T10:52:14.218Z,13.93
2018-07-21T10:54:43.178Z,14.78
2018-07-21T10:57:12.246Z,13.85
2018-07-21T10:59:41.305Z,13.40
2018-07-21T11:02:10.335Z,14.53
2018-07-21T11:04:39.238Z,12.50
2018-07-21T11:07:08.118Z,13.35
2018-07-21T11:09:37.021Z,12.98
2018-07-21T11:12:05.946Z,13.95
2018-07-21T11:14:35.384Z,13.83
2018-07-21T11:17:04.286Z,11.80
2018-07-21T11:19:33.191Z,12.18
2018-07-21T11:22:02.209Z,13.60
2018-07-21T11:24:31.118Z,12.13
2018-07-21T11:27:00.167Z,12.73
2018-07-21T11:29:29.270Z,11.80
2018-07-21T11:31:58.142Z,13.40
2018-07-21T11:34:27.085Z,12.65
2018-07-21T11:36:56.073Z,12.58
2018-07-21T11:39:25.015Z,12.33
2018-07-21T11:41:53.959Z,13.15
2018-07-21T11:44:23.032Z,13.70
2018-07-21T11:46:53.639Z,12.43
2018-07-21T11:49:22.682Z,11.90
2018-07-21T11:51:51.959Z,11.57
2018-07-21T11:54:23.786Z,10.85
2018-07-21T11:56:58.790Z,10.32
2018-07-21T11:59:28.114Z,10.82
2018-07-21T12:01:57.498Z,10.80
2018-07-21T12:04:27.117Z,11.53
2018-07-21T12:06:56.143Z,11.12
2018-07-21T12:09:25.192Z,11.90
2018-07-21T12:11:54.716Z,10.68
2018-07-21T12:14:23.516Z,12.28
2018-07-21T12:16:52.401Z,11.60
2018-07-21T12:19:21.317Z,11.53
2018-07-21T12:21:50.254Z,12.55
2018-07-21T12:24:19.162Z,12.00
2018-07-21T12:26:48.071Z,12.50
2018-07-21T12:29:16.966Z,12.10
2018-07-21T12:31:45.889Z,11.45
2018-07-21T12:34:15.427Z,12.00
2018-07-21T12:36:44.411Z,13.13
2018-07-21T12:39:13.554Z,12.80
2018-07-21T12:41:42.482Z,13.45
2018-07-21T12:44:11.397Z,11.63
2018-07-21T12:46:40.307Z,10.03
2018-07-21T12:49:09.837Z,11.60
2018-07-21T12:51:39.201Z,11.43
2018-07-21T12:54:08.131Z,10.72
2018-07-21T12:56:36.737Z,10.68
2018-07-21T12:59:05.606Z,10.05
2018-07-21T13:01:34.515Z,9.13
2018-07-21T13:04:03.613Z,10.18
2018-07-21T13:06:32.529Z,10.15
2018-07-21T13:09:01.420Z,8.98
2018-07-21T13:11:30.334Z,10.23
2018-07-21T13:13:59.267Z,10.82
2018-07-21T13:16:28.181Z,11.15
2018-07-21T13:18:57.087Z,11.48
2018-07-21T13:21:26.173Z,11.88
2018-07-21T13:23:55.202Z,11.38
2018-07-21T13:26:24.154Z,11.75
2018-07-21T13:28:54.274Z,12.47
2018-07-21T13:31:23.546Z,13.90
2018-07-21T13:33:52.533Z,11.93
2018-07-21T13:36:21.476Z,12.70
2018-07-21T13:38:50.511Z,13.62
2018-07-21T13:41:19.466Z,14.05
2018-07-21T13:43:48.402Z,14.25
2018-07-21T13:46:17.501Z,12.50
2018-07-21T13:48:46.452Z,11.60
2018-07-21T13:51:15.360Z,11.45
2018-07-21T13:53:47.656Z,10.10
2018-07-21T13:56:16.851Z,9.63
2018-07-21T13:58:45.765Z,9.95
2018-07-21T14:01:14.843Z,9.50
2018-07-21T14:03:43.790Z,9.30
2018-07-21T14:06:12.710Z,10.15
2018-07-21T14:08:41.895Z,10.80
2018-07-21T14:11:10.806Z,10.70
2018-07-21T14:13:39.802Z,10.85
2018-07-21T14:16:08.734Z,11.50
2018-07-21T14:18:37.646Z,13.05
2018-07-21T14:21:06.567Z,13.20
2018-07-21T14:23:35.594Z,13.50
2018-07-21T14:26:04.630Z,12.58
2018-07-21T14:28:33.557Z,13.00
2018-07-21T14:31:02.478Z,13.20
2018-07-21T14:33:32.415Z,12.58
2018-07-21T14:36:01.457Z,12.98
2018-07-21T14:38:30.387Z,12.65
2018-07-21T14:40:59.365Z,10.65
2018-07-21T14:43:28.405Z,11.38
2018-07-21T14:45:57.361Z,11.45
2018-07-21T14:48:26.337Z,11.90
2018-07-21T14:50:55.265Z,11.10
2018-07-21T14:53:24.178Z,11.48
2018-07-21T14:55:53.179Z,10.40
2018-07-21T14:58:22.084Z,10.95
2018-07-21T15:00:51.070Z,11.22
2018-07-21T15:03:20.007Z,10.35
2018-07-21T15:05:48.938Z,10.68
2018-07-21T15:08:17.851Z,10.18
2018-07-21T15:10:46.774Z,10.90
2018-07-21T15:13:15.690Z,11.65
2018-07-21T15:15:44.609Z,12.30
2018-07-21T15:18:13.594Z,12.03
2018-07-21T15:20:42.554Z,11.45
2018-07-21T15:23:11.430Z,12.15
2018-07-21T15:25:40.330Z,12.58
2018-07-21T15:28:09.326Z,14.57
2018-07-21T15:30:38.226Z,13.58
2018-07-21T15:33:07.158Z,12.70
2018-07-21T15:35:36.070Z,12.90
2018-07-21T15:38:04.956Z,13.03
2018-07-21T15:40:33.887Z,13.90
2018-07-21T15:43:02.870Z,12.20
2018-07-21T15:45:31.883Z,13.90
2018-07-21T15:48:00.732Z,12.37
2018-07-21T15:50:29.671Z,13.45
2018-07-21T15:52:58.586Z,12.90
2018-07-21T15:55:27.534Z,12.85
2018-07-21T15:57:56.186Z,10.20
2018-07-21T16:00:25.011Z,10.35
2018-07-21T16:02:54.126Z,9.73
2018-07-21T16:05:23.338Z,9.80
2018-07-21T16:07:52.402Z,10.60
2018-07-21T16:10:21.315Z,10.50
2018-07-21T16:12:50.217Z,11.00
2018-07-21T16:15:19.141Z,11.10
2018-07-21T16:17:48.047Z,11.20
2018-07-21T16:20:16.927Z,12.03
2018-07-21T16:22:45.834Z,11.68
2018-07-21T16:25:14.727Z,10.40
2018-07-21T16:27:43.644Z,12.07
2018-07-21T16:30:12.540Z,11.10
2018-07-21T16:32:41.553Z,11.75
2018-07-21T16:35:10.403Z,12.65
2018-07-21T16:37:40.219Z,12.63
2018-07-21T16:40:09.173Z,12.40
2018-07-21T16:42:38.211Z,11.75
2018-07-21T16:45:07.179Z,13.38
2018-07-21T16:47:37.110Z,12.90
2018-07-21T16:50:06.163Z,12.58
2018-07-21T16:52:35.074Z,12.33
2018-07-21T16:55:04.003Z,12.47
2018-07-21T16:57:32.601Z,12.27
2018-07-21T17:00:01.408Z,13.65
2018-07-21T17:02:30.324Z,13.13
2018-07-21T17:04:59.214Z,11.55
2018-07-21T17:07:28.152Z,13.68
2018-07-21T17:09:57.058Z,14.80
2018-07-21T17:12:25.992Z,11.70
2018-07-21T17:14:54.918Z,14.10
2018-07-21T17:17:23.874Z,12.73
2018-07-21T17:19:52.767Z,13.47
2018-07-21T17:22:21.668Z,12.80
2018-07-21T17:24:50.802Z,15.03
2018-07-21T17:27:19.776Z,13.32
2018-07-21T17:29:48.867Z,11.05
2018-07-21T17:32:17.782Z,13.23
2018-07-21T17:34:46.678Z,11.90
2018-07-21T17:37:15.602Z,12.65
2018-07-21T17:39:44.562Z,11.80
2018-07-21T17:42:14.702Z,11.20
2018-07-21T17:44:43.643Z,11.95
2018-07-21T17:47:12.810Z,11.93
2018-07-21T17:49:41.706Z,12.68
2018-07-21T17:52:10.673Z,10.53
2018-07-21T17:54:39.526Z,11.50
2018-07-21T17:57:08.602Z,11.80
2018-07-21T17:59:37.514Z,13.53
2018-07-21T18:02:06.506Z,12.30
2018-07-21T18:04:35.401Z,12.90
2018-07-21T18:07:04.422Z,11.68
2018-07-21T18:09:33.315Z,10.75
2018-07-21T18:12:02.326Z,10.72
2018-07-21T18:14:31.199Z,10.03
2018-07-21T18:17:00.151Z,10.53
2018-07-21T18:19:29.054Z,10.28
2018-07-21T18:21:58.003Z,10.18
2018-07-21T18:24:27.963Z,9.80
2018-07-21T18:26:56.978Z,10.10
2018-07-21T18:29:26.078Z,11.12
2018-07-21T18:31:55.026Z,11.00
2018-07-21T18:34:24.044Z,11.60
2018-07-21T18:36:53.000Z,12.25
2018-07-21T18:39:21.882Z,11.05
2018-07-21T18:41:50.786Z,11.15
2018-07-21T18:44:20.707Z,12.33
2018-07-21T18:46:49.642Z,13.18
2018-07-21T18:49:18.566Z,12.53
2018-07-21T18:51:47.465Z,12.78
2018-07-21T18:54:16.430Z,12.45
2018-07-21T18:56:45.343Z,12.00
2018-07-21T18:59:14.271Z,12.65
2018-07-21T19:01:43.178Z,14.20
2018-07-21T19:04:12.062Z,13.20
2018-07-21T19:06:40.970Z,12.70
2018-07-21T19:09:10.474Z,14.35
2018-07-21T19:11:39.698Z,13.22
2018-07-21T19:14:08.571Z,11.48
2018-07-21T19:16:40.070Z,13.00
2018-07-21T19:19:09.142Z,13.65
2018-07-21T19:21:38.114Z,13.75
2018-07-21T19:24:06.700Z,13.60
2018-07-21T19:26:40.770Z,14.00
2018-07-21T19:29:09.686Z,14.78
2018-07-21T19:31:39.158Z,14.43
2018-07-21T19:34:08.071Z,13.93
2018-07-21T19:36:36.967Z,14.38
2018-07-21T19:39:07.426Z,13.43
2018-07-21T19:41:41.874Z,14.75
2018-07-21T19:44:10.779Z,14.43
2018-07-21T19:46:39.673Z,15.30
2018-07-21T19:49:08.285Z,15.75
2018-07-21T19:51:37.079Z,16.65
2018-07-21T19:54:06.019Z,15.25
2018-07-21T19:56:34.962Z,16.65
2018-07-21T19:59:03.869Z,16.87
2018-07-21T20:01:32.750Z,16.73
2018-07-21T20:04:01.712Z,18.02
2018-07-21T20:06:30.605Z,16.85
2018-07-21T20:08:59.523Z,16.07
2018-07-21T20:11:28.426Z,17.95
2018-07-21T20:13:57.455Z,17.70
2018-07-21T20:16:27.406Z,18.50
2018-07-21T20:18:56.363Z,19.65
2018-07-21T20:21:25.356Z,19.10
2018-07-21T20:23:54.280Z,20.20
2018-07-21T20:26:23.196Z,19.77
2018-07-21T20:28:52.123Z,19.07
2018-07-21T20:31:21.030Z,19.00
2018-07-21T20:33:49.983Z,17.80
2018-07-21T20:36:18.873Z,18.62
2018-07-21T20:38:48.146Z,20.10
2018-07-21T20:41:17.050Z,17.85
2018-07-21T20:43:46.087Z,18.90
2018-07-21T20:46:15.058Z,21.45
2018-07-21T20:48:44.057Z,18.48
2018-07-21T20:51:12.987Z,18.05
2018-07-21T20:53:41.893Z,19.62
2018-07-21T20:56:10.844Z,18.90
2018-07-21T20:58:39.745Z,19.30
2018-07-21T21:01:08.679Z,19.55
2018-07-21T21:03:37.559Z,19.05
2018-07-21T21:06:06.470Z,20.48
2018-07-21T21:08:35.834Z,19.40
2018-07-21T21:11:04.743Z,19.85
2018-07-21T21:13:33.670Z,20.70
2018-07-21T21:16:02.584Z,20.45
2018-07-21T21:18:31.497Z,21.45
2018-07-21T21:21:00.442Z,22.93
2018-07-21T21:23:29.399Z,23.95
2018-07-21T21:25:58.338Z,25.02
2018-07-21T21:28:27.319Z,23.42
2018-07-21T21:30:56.269Z,25.27
2018-07-21T21:33:25.281Z,23.07
2018-07-21T21:35:54.198Z,22.35
2018-07-21T21:38:22.848Z,22.75
2018-07-21T21:40:51.763Z,21.42
2018-07-21T21:43:20.670Z,21.93
2018-07-21T21:45:49.588Z,21.12
2018-07-21T21:48:18.864Z,19.98
2018-07-21T21:50:47.776Z,19.62
2018-07-21T21:53:16.793Z,19.62
2018-07-21T21:55:45.703Z,21.73
2018-07-21T21:58:14.942Z,20.17
2018-07-21T22:01:16.019Z,21.82
2018-07-21T22:03:45.532Z,21.68
2018-07-21T22:06:14.441Z,21.62
2018-07-21T22:08:43.362Z,21.52
2018-07-21T22:11:12.330Z,22.35
2018-07-21T22:13:41.242Z,19.55
2018-07-21T22:16:10.225Z,21.65
2018-07-21T22:18:39.238Z,23.02
2018-07-21T22:21:08.170Z,23.25
2018-07-21T22:23:37.162Z,21.85
2018-07-21T22:26:06.141Z,21.97
2018-07-21T22:28:35.081Z,22.98
2018-07-21T22:31:04.022Z,21.45
2018-07-21T22:33:33.144Z,24.35
2018-07-21T22:36:02.074Z,24.07
2018-07-21T22:38:31.001Z,23.32
2018-07-21T22:40:59.908Z,24.57
2018-07-21T22:43:28.940Z,22.90
2018-07-21T22:45:57.986Z,24.90
2018-07-21T22:48:27.044Z,22.52
2018-07-21T22:50:56.147Z,24.50
2018-07-21T22:53:25.148Z,24.82
2018-07-21T22:55:54.155Z,26.23
2018-07-21T22:58:23.098Z,25.23
2018-07-21T23:00:52.287Z,25.92
2018-07-21T23:03:21.149Z,24.82
2018-07-21T23:05:50.131Z,27.15
2018-07-21T23:08:19.066Z,24.02
2018-07-21T23:10:47.975Z,25.05
2018-07-21T23:13:17.047Z,26.20
2018-07-21T23:15:45.962Z,26.05
2018-07-21T23:18:14.945Z,24.75
2018-07-21T23:20:43.855Z,25.45
2018-07-21T23:23:12.752Z,24.23
2018-07-21T23:25:41.670Z,28.17
2018-07-21T23:28:10.578Z,23.65
2018-07-21T23:30:39.502Z,24.20
2018-07-21T23:33:08.516Z,24.80
2018-07-21T23:35:37.490Z,24.72
2018-07-21T23:38:06.413Z,26.02
2018-07-21T23:40:35.366Z,24.72
2018-07-21T23:43:04.270Z,26.00
2018-07-21T23:45:33.193Z,25.80
2018-07-21T23:48:02.095Z,26.37
2018-07-21T23:50:31.004Z,28.23
2018-07-21T23:52:59.905Z,25.92
2018-07-21T23:55:28.854Z,27.70
2018-07-21T23:57:57.793Z,25.20
